Location Norrisville, MD, US

ob CW6888 140215Z AUTO 19001G03KT OVC046 M05/M07 A2970 RMK SLPNO 

2017.12.14 0215 UTC
Wind from the S (186 degrees) at 1.0 MPH (1 KT) gusting to 3.0 MPH (3 KT)
Visibility    Mile(s)
Sky Conditions  overcast
Temperature 23.40 F (-5 C)
Dew Point 19.84 F (-7 C)
Relative Humidity 86%
Pressure   29.70 in. Hg (1006 hPa)
Rain  0.01 in.
Daily Rain  in.

Station Name  Sola Virtus Observatory
Longitude, Latitude  -76.5447, 39.7025
Elevation 738
Station URL http://sola-virtus-observatory.org
Software Type VWS V15.00